createdAt,value
2022-10-19T00:01:45.410Z,76584.06
2022-10-19T00:04:12.794Z,76575.81
2022-10-19T00:06:40.411Z,76575.81
2022-10-19T00:09:08.735Z,76567.59
2022-10-19T00:11:39.935Z,76571.72
2022-10-19T00:14:07.506Z,76565.56
2022-10-19T00:16:38.895Z,76559.38
2022-10-19T00:19:09.226Z,76551.16
2022-10-19T00:21:37.805Z,76549.09
2022-10-19T00:24:05.740Z,76555.28
2022-10-19T00:26:33.209Z,76563.50
2022-10-19T00:29:00.851Z,76571.72
2022-10-19T00:31:28.212Z,76579.94
2022-10-19T00:33:55.916Z,76592.28
2022-10-19T00:36:26.214Z,76594.31
2022-10-19T00:38:53.637Z,76604.59
2022-10-19T00:41:24.625Z,76600.50
2022-10-19T00:43:51.947Z,76600.50
2022-10-19T00:46:19.335Z,76621.06
2022-10-19T00:48:46.600Z,76619.00
2022-10-19T00:51:13.834Z,76641.59
2022-10-19T00:53:41.204Z,76658.06
2022-10-19T00:56:10.262Z,76658.06
2022-10-19T00:58:37.547Z,76670.38
2022-10-19T01:01:05.069Z,76670.38
2022-10-19T01:03:32.727Z,76686.84
2022-10-19T01:06:00.173Z,76703.28
2022-10-19T01:08:28.498Z,76703.28
2022-10-19T01:11:18.049Z,76709.44
2022-10-19T01:13:53.228Z,76715.63
2022-10-19T01:16:25.338Z,76707.41
2022-10-19T01:18:53.388Z,76693.00
2022-10-19T01:21:20.674Z,76684.78
2022-10-19T01:24:07.503Z,76674.50
2022-10-19T01:26:41.181Z,76676.56
2022-10-19T01:29:27.112Z,76664.22
2022-10-19T01:31:54.343Z,76664.22
2022-10-19T01:34:35.469Z,76666.28
2022-10-19T01:37:06.435Z,76658.06
2022-10-19T01:39:45.272Z,76649.84
2022-10-19T01:42:21.738Z,76649.84
2022-10-19T01:45:06.706Z,76649.84
2022-10-19T01:47:35.323Z,76645.72
2022-10-19T01:50:06.366Z,76649.84
2022-10-19T01:52:34.031Z,76658.06
2022-10-19T01:55:01.573Z,76647.78
2022-10-19T01:57:33.450Z,76645.72
2022-10-19T02:00:07.431Z,76653.94
2022-10-19T02:02:36.821Z,76653.94
2022-10-19T02:05:04.605Z,76651.88
2022-10-19T02:07:33.119Z,76651.88
2022-10-19T02:10:00.791Z,76670.38
2022-10-19T02:12:28.777Z,76678.63
2022-10-19T02:14:57.719Z,76682.72
2022-10-19T02:17:26.337Z,76682.72
2022-10-19T02:19:53.722Z,76690.94
2022-10-19T02:22:21.578Z,76682.72
2022-10-19T02:24:48.805Z,76686.84
2022-10-19T02:27:16.633Z,76705.34
2022-10-19T02:29:44.007Z,76705.34
2022-10-19T02:32:11.395Z,76711.50
2022-10-19T02:34:38.673Z,76719.72
2022-10-19T02:37:06.147Z,76719.72
2022-10-19T02:39:33.407Z,76727.94
2022-10-19T02:42:15.117Z,76727.94
2022-10-19T02:44:42.393Z,76732.06
2022-10-19T02:47:16.501Z,76715.63
2022-10-19T02:49:43.846Z,76723.84
2022-10-19T02:52:11.771Z,76732.06
2022-10-19T02:54:39.830Z,76736.16
2022-10-19T02:57:15.127Z,76738.22
2022-10-19T02:59:43.091Z,76732.06
2022-10-19T03:02:10.295Z,76723.84
2022-10-19T03:04:38.228Z,76734.13
2022-10-19T03:07:05.548Z,76736.16
2022-10-19T03:09:32.837Z,76732.06
2022-10-19T03:12:01.020Z,76744.41
2022-10-19T03:14:29.143Z,76734.13
2022-10-19T03:16:56.484Z,76740.28
2022-10-19T03:19:23.819Z,76736.16
2022-10-19T03:21:51.186Z,76736.16
2022-10-19T03:24:18.362Z,76736.16
2022-10-19T03:26:45.710Z,76732.06
2022-10-19T03:29:12.962Z,76725.91
2022-10-19T03:31:40.411Z,76723.84
2022-10-19T03:34:07.885Z,76711.50
2022-10-19T03:36:36.493Z,76717.66
2022-10-19T03:39:04.669Z,76723.84
2022-10-19T03:41:33.704Z,76723.84
2022-10-19T03:46:28.423Z,76721.78
2022-10-19T03:48:56.278Z,76719.72
2022-10-19T03:51:24.962Z,76719.72
2022-10-19T03:53:52.937Z,76707.41
2022-10-19T03:56:21.219Z,76703.28
2022-10-19T03:58:48.948Z,76695.06
2022-10-19T04:01:20.865Z,76695.06
2022-10-19T04:03:48.401Z,76690.94
2022-10-19T04:06:19.662Z,76680.66
2022-10-19T04:08:50.522Z,76682.72
2022-10-19T04:11:18.403Z,76686.84
2022-10-19T04:13:48.465Z,76682.72
2022-10-19T04:16:16.556Z,76678.63
2022-10-19T04:18:43.907Z,76674.50
2022-10-19T04:21:19.915Z,76664.22
2022-10-19T04:23:47.730Z,76660.13
2022-10-19T04:26:15.069Z,76660.13
2022-10-19T04:28:42.357Z,76662.16
2022-10-19T04:31:10.142Z,76660.13
2022-10-19T04:33:37.586Z,76645.72
2022-10-19T04:36:05.777Z,76645.72
2022-10-19T04:38:33.288Z,76645.72
2022-10-19T04:41:04.039Z,76635.44
2022-10-19T04:43:31.384Z,76647.78
2022-10-19T04:46:02.138Z,76633.38
2022-10-19T04:48:29.534Z,76627.22
2022-10-19T04:50:57.226Z,76608.72
2022-10-19T04:55:52.561Z,76604.59
2022-10-19T04:58:19.758Z,76592.28
2022-10-19T05:00:47.234Z,76584.06
2022-10-19T05:03:14.664Z,76586.09
2022-10-19T05:05:42.188Z,76571.72
2022-10-19T05:08:09.690Z,76571.72
2022-10-19T05:10:37.142Z,76561.44
2022-10-19T05:13:07.007Z,76551.16
2022-10-19T05:15:34.281Z,76542.94
2022-10-19T05:18:01.572Z,76522.38
2022-10-19T05:20:31.099Z,76510.03
2022-10-19T05:23:04.560Z,76501.81
2022-10-19T05:25:34.651Z,76487.44
2022-10-19T05:28:01.940Z,76481.28
2022-10-19T05:30:29.367Z,76481.28
2022-10-19T05:32:58.155Z,76473.03
2022-10-19T05:35:25.494Z,76481.28
2022-10-19T05:37:55.835Z,76473.03
2022-10-19T05:40:23.176Z,76477.16
2022-10-19T05:42:50.651Z,76481.28
2022-10-19T05:45:18.001Z,76473.03
2022-10-19T05:47:45.827Z,76464.81
2022-10-19T05:50:13.371Z,76452.50
2022-10-19T05:52:40.607Z,76423.72
2022-10-19T05:55:08.188Z,76419.59
2022-10-19T05:57:35.800Z,76394.94
2022-10-19T06:00:04.550Z,76372.31
2022-10-19T06:02:31.919Z,76351.75
2022-10-19T06:04:59.104Z,76327.09
2022-10-19T06:07:26.422Z,76296.28
2022-10-19T06:09:54.021Z,76275.72
2022-10-19T06:12:24.325Z,76251.03
2022-10-19T06:14:52.618Z,76234.59
2022-10-19T06:17:21.649Z,76222.28
2022-10-19T06:19:48.967Z,76232.56
2022-10-19T06:22:16.220Z,76220.22
2022-10-19T06:24:43.509Z,76214.06
2022-10-19T06:27:10.804Z,76197.59
2022-10-19T06:29:39.204Z,76154.44
2022-10-19T06:32:06.420Z,76127.72
2022-10-19T06:34:34.061Z,76107.16
2022-10-19T06:37:01.773Z,76098.94
2022-10-19T06:39:29.794Z,76086.63
2022-10-19T06:41:57.002Z,76053.72
2022-10-19T06:44:24.669Z,76000.28
2022-10-19T06:46:52.318Z,75868.75
2022-10-19T06:49:19.703Z,75671.44
2022-10-19T06:51:47.034Z,75387.84
2022-10-19T06:54:14.244Z,75326.22
2022-10-19T06:56:41.887Z,75256.34
2022-10-19T06:59:10.191Z,75001.53
2022-10-19T07:01:37.391Z,75040.59
2022-10-19T07:04:04.743Z,75001.53
2022-10-19T07:06:32.378Z,74964.56
2022-10-19T07:08:59.725Z,74972.78
2022-10-19T07:11:26.983Z,75001.53
2022-10-19T07:13:54.739Z,75190.59
2022-10-19T07:16:22.756Z,75186.47
2022-10-19T07:18:50.687Z,75291.28
2022-10-19T07:21:18.093Z,75396.06
2022-10-19T07:23:46.007Z,75461.84
2022-10-19T07:26:16.318Z,75556.38
2022-10-19T07:28:44.995Z,75587.19
2022-10-19T07:31:13.573Z,75570.75
2022-10-19T07:33:40.920Z,75601.56
2022-10-19T07:36:08.903Z,75601.56
2022-10-19T07:38:36.345Z,75593.34
2022-10-19T07:41:07.934Z,75480.34
2022-10-19T07:43:35.272Z,75326.22
2022-10-19T07:46:06.026Z,75207.03
2022-10-19T07:48:34.331Z,75075.53
2022-10-19T07:51:01.948Z,74976.88
2022-10-19T07:53:29.333Z,74921.41
2022-10-19T07:55:56.668Z,74808.41
2022-10-19T07:58:24.120Z,74878.25
2022-10-19T08:00:52.111Z,74976.88
2022-10-19T08:04:13.789Z,74927.56
2022-10-19T08:06:08.202Z,74757.03
2022-10-19T08:08:36.172Z,74689.25
2022-10-19T08:11:13.675Z,74685.13
2022-10-19T08:13:40.929Z,74763.22
2022-10-19T08:16:20.546Z,74672.81
2022-10-19T08:18:48.451Z,74676.91
2022-10-19T08:21:15.872Z,74730.34
2022-10-19T08:23:44.195Z,74580.34
2022-10-19T08:26:12.488Z,74471.47
2022-10-19T08:28:39.946Z,74609.13
2022-10-19T08:31:14.813Z,74738.56
2022-10-19T08:33:42.232Z,74691.28
2022-10-19T08:36:10.683Z,74693.34
2022-10-19T08:38:38.262Z,74738.56
2022-10-19T08:41:16.701Z,74759.09
2022-10-19T08:44:05.094Z,74755.00
2022-10-19T08:46:54.365Z,74783.75
2022-10-19T08:49:25.088Z,74722.13
2022-10-19T08:51:57.214Z,74728.28
2022-10-19T08:54:24.645Z,74730.34
2022-10-19T08:56:55.856Z,74831.00
2022-10-19T08:59:29.140Z,74826.91
2022-10-19T09:01:58.422Z,74590.63
2022-10-19T09:04:42.077Z,74522.84
2022-10-19T09:07:22.053Z,74617.34
2022-10-19T09:09:50.619Z,74471.47
2022-10-19T09:12:24.964Z,74397.50
2022-10-19T09:14:56.480Z,74590.63
2022-10-19T09:17:25.467Z,74740.59
2022-10-19T09:19:54.087Z,74557.75
2022-10-19T09:22:26.473Z,74393.41
2022-10-19T09:24:59.168Z,74450.94
2022-10-19T09:27:30.387Z,74360.53
2022-10-19T09:29:58.364Z,74335.88
2022-10-19T09:32:26.835Z,74282.47
2022-10-19T09:34:54.562Z,74397.50
2022-10-19T09:37:26.285Z,74352.31
2022-10-19T09:39:56.541Z,74348.22
2022-10-19T09:42:33.427Z,74340.00
2022-10-19T09:45:02.749Z,74342.03
2022-10-19T09:47:37.401Z,74379.03
2022-10-19T09:50:08.581Z,74204.41
2022-10-19T09:52:39.335Z,74311.22
2022-10-19T09:55:10.412Z,74360.53
2022-10-19T09:57:41.953Z,74455.03
2022-10-19T10:00:44.858Z,74364.63
2022-10-19T10:03:24.805Z,74327.66
2022-10-19T10:05:52.311Z,74089.38
2022-10-19T10:08:26.751Z,74237.28
2022-10-19T10:11:03.678Z,74048.28
2022-10-19T10:13:31.084Z,74216.72
2022-10-19T10:16:00.699Z,74364.63
2022-10-19T10:18:30.827Z,74346.16
2022-10-19T10:21:07.041Z,74315.34
2022-10-19T10:23:36.590Z,74344.09
2022-10-19T10:26:04.175Z,74233.16
2022-10-19T10:28:31.953Z,74220.84
2022-10-19T10:31:05.429Z,74202.34
2022-10-19T10:33:44.048Z,74163.31
2022-10-19T10:36:12.033Z,74126.34
2022-10-19T10:38:40.714Z,74210.56
2022-10-19T10:41:12.195Z,74142.78
2022-10-19T10:43:40.566Z,74266.03
2022-10-19T10:46:08.339Z,74397.50
2022-10-19T10:48:37.397Z,74372.84
2022-10-19T10:51:05.866Z,74346.16
2022-10-19T10:53:43.535Z,74253.72
2022-10-19T10:56:24.639Z,74227.00
2022-10-19T10:59:19.915Z,74335.88
2022-10-19T11:01:52.883Z,74270.16
2022-10-19T11:04:22.683Z,74233.16
2022-10-19T11:06:57.705Z,74107.84
2022-10-19T11:09:35.872Z,74187.97
2022-10-19T11:12:03.644Z,74212.63
2022-10-19T11:14:47.967Z,74253.72
2022-10-19T11:17:17.920Z,74434.50
2022-10-19T11:19:47.064Z,74492.00
2022-10-19T11:22:16.884Z,74537.22
2022-10-19T11:24:53.307Z,74602.94
2022-10-19T11:27:39.755Z,74574.19
2022-10-19T11:30:17.882Z,74561.88
2022-10-19T11:32:52.428Z,74496.13
2022-10-19T11:35:19.634Z,74473.53
2022-10-19T11:38:17.609Z,74500.22
2022-10-19T11:41:18.643Z,74483.78
2022-10-19T11:43:58.869Z,74422.16
2022-10-19T11:46:45.766Z,74442.72
2022-10-19T11:49:12.965Z,74514.63
2022-10-19T11:51:47.189Z,74582.41
2022-10-19T11:54:27.315Z,74639.94
2022-10-19T11:57:04.802Z,74623.50
2022-10-19T11:59:34.918Z,74576.25
2022-10-19T12:02:10.835Z,74615.28
2022-10-19T12:04:59.126Z,74615.28
2022-10-19T12:07:49.810Z,74619.38
2022-10-19T12:10:17.056Z,74602.94
2022-10-19T12:12:49.124Z,74627.59
2022-10-19T12:15:16.301Z,74574.19
2022-10-19T12:17:45.080Z,74627.59
2022-10-19T12:20:19.723Z,74693.34
2022-10-19T12:22:47.801Z,74703.63
2022-10-19T12:25:14.913Z,74750.88
2022-10-19T12:27:43.070Z,74800.19
2022-10-19T12:30:14.210Z,74812.53
2022-10-19T12:32:53.373Z,74796.09
2022-10-19T12:35:31.376Z,74804.31
2022-10-19T12:38:19.922Z,74808.41
2022-10-19T12:40:56.194Z,74833.06
2022-10-19T12:43:28.806Z,74884.44
2022-10-19T12:46:02.439Z,74890.59
2022-10-19T12:48:29.674Z,74874.16
2022-10-19T12:51:01.013Z,74882.38
2022-10-19T12:53:31.012Z,74911.13
2022-10-19T12:56:05.055Z,74902.91
2022-10-19T12:58:53.144Z,74907.03
2022-10-19T13:01:27.380Z,74890.59
2022-10-19T13:04:13.631Z,74919.34
2022-10-19T13:06:44.404Z,74898.81
2022-10-19T13:09:22.430Z,74892.66
2022-10-19T13:12:16.501Z,74886.47
2022-10-19T13:14:50.261Z,74907.03
2022-10-19T13:17:37.115Z,74915.25
2022-10-19T13:20:14.985Z,74931.69
2022-10-19T13:22:42.043Z,74952.22
2022-10-19T13:25:29.840Z,74968.66
2022-10-19T13:27:56.838Z,74981.00
2022-10-19T13:30:36.326Z,74974.84
2022-10-19T13:33:22.636Z,74976.88
2022-10-19T13:35:49.743Z,74981.00
2022-10-19T13:38:20.267Z,74972.78
2022-10-19T13:40:47.293Z,74968.66
2022-10-19T13:43:18.369Z,74972.78
2022-10-19T13:46:05.661Z,74981.00
2022-10-19T13:48:43.004Z,74981.00
2022-10-19T13:51:28.628Z,74985.09
2022-10-19T13:54:14.205Z,74989.22
2022-10-19T13:57:00.043Z,74972.78
2022-10-19T13:59:41.883Z,74981.00
2022-10-19T14:02:28.194Z,74972.78
2022-10-19T14:05:10.732Z,74995.38
2022-10-19T14:08:01.243Z,74993.31
2022-10-19T14:10:32.819Z,75013.88
2022-10-19T14:13:00.822Z,75009.75
2022-10-19T14:15:28.980Z,74993.31
2022-10-19T14:18:03.602Z,74972.78
2022-10-19T14:20:35.045Z,75009.75
2022-10-19T14:23:19.057Z,75026.19
2022-10-19T14:26:05.773Z,75042.66
2022-10-19T14:28:32.870Z,75054.97
2022-10-19T14:31:01.466Z,75063.19
2022-10-19T14:33:29.003Z,75079.63
2022-10-19T14:35:56.405Z,75077.56
2022-10-19T14:38:26.644Z,75071.41
2022-10-19T14:40:53.807Z,75083.75
2022-10-19T14:43:26.500Z,75083.75
2022-10-19T14:46:08.941Z,75116.63
2022-10-19T14:48:36.747Z,75145.38
2022-10-19T14:51:04.765Z,75155.66
2022-10-19T14:53:45.884Z,75153.59
2022-10-19T14:56:12.930Z,75145.38
2022-10-19T14:58:41.870Z,75155.66
2022-10-19T15:01:09.537Z,75194.69
2022-10-19T15:03:42.861Z,75215.25
2022-10-19T15:06:25.190Z,75227.56
2022-10-19T15:11:22.755Z,75235.78
2022-10-19T15:13:54.578Z,75244.00
2022-10-19T15:16:52.739Z,75246.06
2022-10-19T15:19:33.227Z,75252.22
2022-10-19T15:22:13.362Z,75268.66
2022-10-19T15:24:41.264Z,75289.22
2022-10-19T15:27:17.793Z,75305.66
2022-10-19T15:29:58.114Z,75313.88
2022-10-19T15:32:26.231Z,75293.34
2022-10-19T15:34:53.272Z,75326.22
2022-10-19T15:37:22.517Z,75334.44
2022-10-19T15:39:50.507Z,75346.75
2022-10-19T15:42:37.279Z,75363.19
2022-10-19T15:45:06.002Z,75379.63
2022-10-19T15:47:33.323Z,75396.06
2022-10-19T15:50:01.165Z,75379.63
2022-10-19T15:52:29.769Z,75391.97
2022-10-19T15:54:57.995Z,75410.47
2022-10-19T15:57:26.452Z,75420.72
2022-10-19T15:59:55.641Z,75426.91
2022-10-19T16:02:25.105Z,75437.19
2022-10-19T16:04:52.960Z,75439.22
2022-10-19T16:07:30.954Z,75447.44
2022-10-19T16:09:59.334Z,75447.44
2022-10-19T16:12:26.678Z,75451.56
2022-10-19T16:14:54.805Z,75453.63
2022-10-19T16:17:21.884Z,75459.78
2022-10-19T16:19:53.811Z,75482.38
2022-10-19T16:22:21.612Z,75490.59
2022-10-19T16:24:48.799Z,75486.50
2022-10-19T16:27:16.463Z,75490.59
2022-10-19T16:29:44.400Z,75500.88
2022-10-19T16:32:11.680Z,75502.94
2022-10-19T16:34:38.767Z,75539.94
2022-10-19T16:37:07.717Z,75570.75
2022-10-19T16:39:35.300Z,75601.56
2022-10-19T16:42:02.360Z,75605.69
2022-10-19T16:44:30.474Z,75609.81
2022-10-19T16:46:57.624Z,75638.56
2022-10-19T16:49:24.756Z,75646.78
2022-10-19T16:51:54.813Z,75646.78
2022-10-19T16:54:29.744Z,75648.84
2022-10-19T16:56:57.013Z,75630.34
2022-10-19T16:59:24.273Z,75659.13
2022-10-19T17:01:51.365Z,75700.22
2022-10-19T17:04:18.880Z,75704.34
2022-10-19T17:06:46.259Z,75704.34
2022-10-19T17:09:40.361Z,75696.13
2022-10-19T17:12:04.512Z,75716.66
2022-10-19T17:14:33.134Z,75733.09
2022-10-19T17:17:00.203Z,75720.78
2022-10-19T17:19:27.309Z,75720.78
2022-10-19T17:21:54.759Z,75716.66
2022-10-19T17:24:22.761Z,75733.09
2022-10-19T17:26:50.376Z,75718.72
2022-10-19T17:29:17.564Z,75700.22
2022-10-19T17:31:44.660Z,75700.22
2022-10-19T17:34:12.584Z,75696.13
2022-10-19T17:39:17.976Z,75687.91
2022-10-19T17:41:45.613Z,75692.00
2022-10-19T17:44:12.637Z,75683.78
2022-10-19T17:46:39.681Z,75706.38
2022-10-19T17:49:06.793Z,75739.28
2022-10-19T17:51:34.979Z,75724.88
2022-10-19T17:54:02.892Z,75729.00
2022-10-19T17:56:30.371Z,75714.59
2022-10-19T17:58:57.588Z,75733.09
2022-10-19T18:01:44.686Z,75720.78
2022-10-19T18:04:12.309Z,75737.22
2022-10-19T18:06:39.448Z,75714.59
2022-10-19T18:09:16.062Z,75745.44
2022-10-19T18:11:44.762Z,75741.31
2022-10-19T18:14:12.131Z,75735.16
2022-10-19T18:16:39.984Z,75712.56
2022-10-19T18:19:07.315Z,75704.34
2022-10-19T18:21:40.880Z,75710.50
2022-10-19T18:24:11.308Z,75696.13
2022-10-19T18:26:41.388Z,75671.44
2022-10-19T18:29:09.653Z,75683.78
2022-10-19T18:31:37.584Z,75696.13
2022-10-19T18:34:05.809Z,75737.22
2022-10-19T18:36:33.019Z,75731.06
2022-10-19T18:39:00.865Z,75741.31
2022-10-19T18:41:29.744Z,75749.56
2022-10-19T18:44:05.056Z,75749.56
2022-10-19T18:46:32.822Z,75739.28
2022-10-19T18:49:00.204Z,75766.00
2022-10-19T18:51:28.383Z,75778.31
2022-10-19T18:53:55.658Z,75757.78
2022-10-19T18:56:24.504Z,75772.16
2022-10-19T18:58:51.705Z,75757.78
2022-10-19T19:01:19.990Z,75766.00
2022-10-19T19:03:49.781Z,75757.78
2022-10-19T19:06:19.135Z,75741.31
2022-10-19T19:08:46.219Z,75772.16
2022-10-19T19:11:13.277Z,75761.88
2022-10-19T19:13:40.448Z,75753.66
2022-10-19T19:16:07.823Z,75747.50
2022-10-19T19:18:35.167Z,75741.31
2022-10-19T19:21:02.817Z,75733.09
2022-10-19T19:23:29.973Z,75745.44
2022-10-19T19:25:57.060Z,75751.59
2022-10-19T19:28:24.323Z,75745.44
2022-10-19T19:30:51.395Z,75739.28
2022-10-19T19:33:21.044Z,75737.22
2022-10-19T19:35:48.206Z,75726.94
2022-10-19T19:38:15.338Z,75729.00
2022-10-19T19:40:43.978Z,75720.78
2022-10-19T19:43:11.733Z,75708.44
2022-10-19T19:45:39.004Z,75696.13
2022-10-19T19:48:06.134Z,75712.56
2022-10-19T19:50:33.238Z,75724.88
2022-10-19T19:53:00.801Z,75712.56
2022-10-19T19:55:28.015Z,75704.34
2022-10-19T19:57:55.154Z,75706.38
2022-10-19T20:00:22.371Z,75720.78
2022-10-19T20:02:53.103Z,75722.84
2022-10-19T20:05:21.230Z,75720.78
2022-10-19T20:07:49.591Z,75716.66
2022-10-19T20:10:22.700Z,75720.78
2022-10-19T20:12:49.745Z,75729.00
2022-10-19T20:15:17.765Z,75716.66
2022-10-19T20:17:45.001Z,75722.84
2022-10-19T20:20:12.712Z,75726.94
2022-10-19T20:22:39.765Z,75729.00
2022-10-19T20:25:07.002Z,75729.00
2022-10-19T20:27:34.701Z,75735.16
2022-10-19T20:30:03.387Z,75745.44
2022-10-19T20:32:30.514Z,75753.66
2022-10-19T20:34:57.607Z,75766.00
2022-10-19T20:37:25.652Z,75753.66
2022-10-19T20:39:52.676Z,75753.66
2022-10-19T20:42:20.323Z,75741.31
2022-10-19T20:44:47.372Z,75753.66
2022-10-19T20:47:14.577Z,75745.44
2022-10-19T20:49:41.638Z,75745.44
2022-10-19T20:52:09.223Z,75741.31
2022-10-19T20:54:37.920Z,75733.09
2022-10-19T20:57:05.014Z,75741.31
2022-10-19T20:59:33.395Z,75739.28
2022-10-19T21:02:00.467Z,75720.78
2022-10-19T21:04:28.920Z,75729.00
2022-10-19T21:06:57.329Z,75724.88
2022-10-19T21:09:26.004Z,75729.00
2022-10-19T21:11:53.102Z,75729.00
2022-10-19T21:14:25.260Z,75743.38
2022-10-19T21:16:56.700Z,75741.31
2022-10-19T21:19:25.469Z,75735.16
2022-10-19T21:21:55.426Z,75739.28
2022-10-19T21:24:23.490Z,75729.00
2022-10-19T21:29:19.290Z,75720.78
2022-10-19T21:31:48.938Z,75724.88
2022-10-19T21:34:18.477Z,75724.88
2022-10-19T21:36:45.634Z,75745.44
2022-10-19T21:39:13.339Z,75747.50
2022-10-19T21:41:40.372Z,75751.59
2022-10-19T21:44:07.408Z,75749.56
2022-10-19T21:46:34.861Z,75751.59
2022-10-19T21:49:02.051Z,75743.38
2022-10-19T21:51:45.415Z,75747.50
2022-10-19T21:54:13.397Z,75735.16
2022-10-19T21:56:40.954Z,75720.78
2022-10-19T21:59:08.080Z,75737.22
2022-10-19T22:01:38.689Z,75745.44
2022-10-19T22:04:09.507Z,75743.38
2022-10-19T22:06:37.356Z,75745.44
2022-10-19T22:09:05.388Z,75747.50
2022-10-19T22:11:32.515Z,75741.31
2022-10-19T22:14:00.365Z,75753.66
2022-10-19T22:16:27.702Z,75745.44
2022-10-19T22:18:54.924Z,75753.66
2022-10-19T22:21:23.159Z,75741.31
2022-10-19T22:24:02.879Z,75745.44
2022-10-19T22:26:30.977Z,75757.78
2022-10-19T22:28:58.363Z,75770.09
2022-10-19T22:31:25.960Z,75759.81
2022-10-19T22:33:53.033Z,75761.88
2022-10-19T22:36:20.188Z,75761.88
2022-10-19T22:38:47.222Z,75749.56
2022-10-19T22:41:14.294Z,75776.25
2022-10-19T22:43:41.328Z,75778.31
2022-10-19T22:46:08.361Z,75782.44
2022-10-19T22:48:35.478Z,75776.25
2022-10-19T22:51:02.534Z,75786.53
2022-10-19T22:53:30.789Z,75798.88
2022-10-19T22:55:57.971Z,75809.16
2022-10-19T22:58:25.058Z,75809.16
2022-10-19T23:01:09.219Z,75796.81
2022-10-19T23:03:37.633Z,75802.97
2022-10-19T23:06:05.059Z,75800.94
2022-10-19T23:08:32.213Z,75807.09
2022-10-19T23:10:59.542Z,75788.59
2022-10-19T23:13:26.598Z,75780.38
2022-10-19T23:15:53.703Z,75782.44
2022-10-19T23:18:20.862Z,75778.31
2022-10-19T23:20:53.074Z,75772.16
2022-10-19T23:23:20.151Z,75790.66
2022-10-19T23:25:56.683Z,75788.59
2022-10-19T23:28:23.924Z,75798.88
2022-10-19T23:30:50.979Z,75802.97
2022-10-19T23:33:18.040Z,75796.81
2022-10-19T23:35:45.221Z,75782.44
2022-10-19T23:38:12.265Z,75811.22
2022-10-19T23:40:42.548Z,75811.22
2022-10-19T23:43:09.619Z,75835.88
2022-10-19T23:45:39.754Z,75866.69
2022-10-19T23:48:07.534Z,75868.75
2022-10-19T23:50:34.589Z,75872.84
2022-10-19T23:53:01.918Z,75868.75
2022-10-19T23:55:29.006Z,75868.75
2022-10-19T23:57:56.045Z,75876.97
